MET'MAP v2.0
soon released !

Expected late october,
this new version will be
more efficient, smarter,
and hosted on a brand new
server x3 powerfull...
...and still free !


Not compatible ?
Try the mobile version !

LOG IN : | Subscribe | Disclaimer | Who is Orbifly ? |
ICAO code :
Legend : VFR Marginal VFR IFR Intensive IFR Very Intensive IFR
Visi :
Ceiling :
>= 8 km
>= 3000ft
5 to 8 km
1000 to 3000 ft
1500m to 5 km
500 to 1000 ft
800 to 1500m
200 to 500 ft
< 800m
< 200 ft

METAR - ETOU Wiesbaden Army - 02 Jun 2020 04:29 UTC
Data Sources :     NOAA   


- Airport Elevation : 461 ft
- IATA code : WIE
- No reported NOTAMs.


ETOU - Wiesbaden Army

Latest METAR recorded : 2015/08/11 07:58 ETOU 110758Z AUTO VRB02KT 9999 SCT060 SCT170 24/17 A3004 RMK AO2 SLP169 T02380171 $
TAF AMD TAF ETOU
Valid from the 01 at 17:00 until the 02 at 18:00 UTC


011710Z 0117/0218 05008KT 9999 FEW050 QNH3013INS
BECMG 0201/0202 02006KT 9999 SKC QNH3016INS
BECMG 0208/0209 09010G15KT 9999 SKC QNH3013INS TX23/0212Z TN12/0203Z LAST NO AMDS AFT 0118 NEXT 0204

Source NOAA


MET'MAP, your aeronautical weather chart ! - Copyright ORBIFLY December 2007

Programming & Development : Alexandra Zaïnal
Co-Developer : Marc-Olivier Méhu
Technical & hardware support : Manuel Goepfert
Concept & Financing : Baudouin d'Aumeries